Time;durP1;ratioP1;P1;durP2;ratioP2;P2;SDS_P1;SDS_P2;PMS_P1;PMS_P2;Temp;Humidity;BMP_temperature;BMP_pressure;BME280_temperature;BME280_humidity;BME280_pressure;Samples;Min_cycle;Max_cycle;Signal;HPM_P1;HPM_P2
2022/11/14 00:02:44;;;;;;;;;;;;;;;25.50;51.10;98069.39;633689;224;39236;-67
2022/11/14 00:05:30;;;;;;;;;;;;;;;25.49;52.39;98063.21;633768;224;37591;-74
2022/11/14 00:08:17;;;;;;;;;;;;;;;25.48;52.18;98066.96;633709;224;39843;-74
2022/11/14 00:11:03;;;;;;;;;;;;;;;25.47;52.85;98065.36;633730;224;36510;-73
2022/11/14 00:13:49;;;;;;;;;;;;;;;25.47;55.48;98065.36;633714;224;37691;-74
2022/11/14 00:16:34;;;;;;;;;;;;;;;25.44;50.66;98058.64;633665;224;36831;-74
2022/11/14 00:19:20;;;;;;;;;;;;;;;25.45;52.70;98057.58;633684;224;36463;-74
2022/11/14 00:22:05;;;;;;;;;;;;;;;25.45;53.70;98062.13;633713;223;37800;-74
2022/11/14 00:24:51;;;;;;;;;;;;;;;25.43;54.98;98059.73;633677;224;41104;-73
2022/11/14 00:27:37;;;;;;;;;;;;;;;25.43;52.91;98053.55;633670;224;40611;-74
2022/11/14 00:30:22;;;;;;;;;;;;;;;25.39;52.65;98061.34;633669;224;36151;-74
2022/11/14 00:33:08;;;;;;;;;;;;;;;25.40;51.11;98051.38;633891;224;39804;-74
2022/11/14 00:35:54;;;;;;;;;;;;;;;25.41;52.32;98050.32;634251;224;36318;-74
2022/11/14 00:38:40;;;;;;;;;;;;;;;25.38;53.44;98045.49;634264;224;36201;-74
2022/11/14 00:41:26;;;;;;;;;;;;;;;25.38;52.08;98040.91;634193;224;36819;-74
2022/11/14 00:44:12;;;;;;;;;;;;;;;25.38;53.13;98042.80;634207;224;39170;-74
2022/11/14 00:46:57;;;;;;;;;;;;;;;25.36;54.33;98037.69;634222;224;40205;-74
2022/11/14 00:49:43;;;;;;;;;;;;;;;25.35;54.62;98037.97;634202;224;39717;-74
2022/11/14 00:52:28;;;;;;;;;;;;;;;25.33;52.39;98038.23;634209;224;39404;-74
2022/11/14 00:55:14;;;;;;;;;;;;;;;25.33;52.63;98038.23;634216;224;36232;-74
2022/11/14 00:58:00;;;;;;;;;;;;;;;25.33;53.42;98034.74;634211;224;36820;-74
2022/11/14 01:00:48;;;;;;;;;;;;;;;25.32;54.22;98028.56;634211;224;40785;-74
2022/11/14 01:07:31;;;;;;;;;;;;;;;25.30;53.31;98028.03;612394;231;36960;-74
2022/11/14 01:20:30;;;;;;;;;;;;;;;25.24;52.06;98021.06;589947;240;40765;-73
2022/11/14 01:26:46;;;;;;;;;;;;;;;25.22;52.67;98023.21;568193;249;38324;-73
2022/11/14 01:29:35;;;;;;;;;;;;;;;25.21;54.82;98025.10;556087;255;36462;-67
2022/11/14 01:32:15;;;;;;;;;;;;;;;25.19;54.17;98027.25;568307;247;36159;-67
2022/11/14 01:35:00;;;;;;;;;;;;;;;25.19;55.00;98027.25;601639;234;36860;-68
2022/11/14 01:37:46;;;;;;;;;;;;;;;25.19;54.79;98029.14;625435;226;40807;-67
2022/11/14 01:40:33;;;;;;;;;;;;;;;25.15;52.45;98023.48;626863;226;37698;-68
2022/11/14 01:43:20;;;;;;;;;;;;;;;25.17;54.80;98024.02;626859;226;35716;-67
2022/11/14 01:46:13;;;;;;;;;;;;;;;25.15;53.59;98017.30;626833;226;36319;-67
2022/11/14 01:49:06;;;;;;;;;;;;;;;25.14;52.72;98013.78;626883;226;40310;-66
2022/11/14 01:51:56;;;;;;;;;;;;;;;25.15;53.29;98017.30;626885;226;36915;-68
2022/11/14 01:54:43;;;;;;;;;;;;;;;25.14;54.98;98010.30;626864;226;39359;-67
2022/11/14 01:57:31;;;;;;;;;;;;;;;25.12;51.86;98015.94;626817;226;36147;-67
2022/11/14 02:00:16;;;;;;;;;;;;;;;25.12;52.47;98015.13;626812;226;36876;-67
2022/11/14 02:03:02;;;;;;;;;;;;;;;25.11;54.80;98014.34;626816;226;40591;-67
2022/11/14 02:05:49;;;;;;;;;;;;;;;25.11;53.82;98013.53;626835;226;40509;-67
2022/11/14 02:08:34;;;;;;;;;;;;;;;25.09;53.77;98019.17;626830;226;36910;-68
2022/11/14 02:11:20;;;;;;;;;;;;;;;25.09;53.72;98016.48;626786;226;36371;-67
2022/11/14 02:14:06;;;;;;;;;;;;;;;25.09;53.02;98013.80;626822;226;40576;-67
2022/11/14 02:16:52;;;;;;;;;;;;;;;25.07;52.22;98024.02;626827;226;41178;-66
2022/11/14 02:19:48;;;;;;;;;;;;;;;25.08;54.55;98014.89;626793;226;40462;-66
2022/11/14 02:22:34;;;;;;;;;;;;;;;25.06;53.92;98008.17;626868;226;40315;-67
2022/11/14 02:25:20;;;;;;;;;;;;;;;25.06;54.25;98005.48;626863;226;36914;-67
2022/11/14 02:28:07;;;;;;;;;;;;;;;25.05;54.48;98009.26;626863;226;40614;-67
2022/11/14 02:30:52;;;;;;;;;;;;;;;25.03;53.03;98006.83;626812;226;38977;-68
2022/11/14 02:33:38;;;;;;;;;;;;;;;25.02;54.06;98006.03;626741;226;36812;-73
2022/11/14 02:36:24;;;;;;;;;;;;;;;25.02;54.32;98005.23;626801;226;39339;-73
2022/11/14 02:39:10;;;;;;;;;;;;;;;25.01;54.58;98008.98;626818;226;36231;-74
2022/11/14 02:41:55;;;;;;;;;;;;;;;25.00;53.16;98007.38;626806;226;36826;-74
2022/11/14 02:44:41;;;;;;;;;;;;;;;25.00;53.80;98008.18;626773;226;40975;-74
2022/11/14 02:47:27;;;;;;;;;;;;;;;24.98;54.46;98012.22;626821;226;39248;-73
2022/11/14 02:50:12;;;;;;;;;;;;;;;24.98;52.74;98009.52;626813;226;39848;-73
2022/11/14 02:52:58;;;;;;;;;;;;;;;24.97;53.53;98005.23;626838;226;36386;-73
2022/11/14 02:55:44;;;;;;;;;;;;;;;24.97;52.55;98005.23;626854;226;36215;-74
2022/11/14 02:58:29;;;;;;;;;;;;;;;24.96;53.47;98001.75;626816;226;36835;-73
2022/11/14 03:01:15;;;;;;;;;;;;;;;24.94;53.30;98003.90;626774;226;39407;-73
2022/11/14 03:04:01;;;;;;;;;;;;;;;24.94;54.64;98003.90;626818;226;36231;-74
2022/11/14 03:06:46;;;;;;;;;;;;;;;24.92;53.86;98008.73;626826;226;36917;-74
2022/11/14 03:09:32;;;;;;;;;;;;;;;24.92;52.68;98006.05;626774;226;36290;-67
2022/11/14 03:12:18;;;;;;;;;;;;;;;24.92;53.81;98011.42;626799;226;36215;-66
2022/11/14 03:15:05;;;;;;;;;;;;;;;24.89;54.18;98006.59;626734;226;36802;-73
2022/11/14 03:17:50;;;;;;;;;;;;;;;24.88;52.87;98005.00;626733;226;37135;-73
2022/11/14 03:20:36;;;;;;;;;;;;;;;24.89;53.33;98005.80;626760;226;37058;-73
2022/11/14 03:23:21;;;;;;;;;;;;;;;24.88;54.56;98007.69;626833;226;41246;-73
2022/11/14 03:26:08;;;;;;;;;;;;;;;24.84;51.83;98003.91;626758;226;37125;-73
2022/11/14 03:28:54;;;;;;;;;;;;;;;24.84;52.96;98001.22;626772;226;37061;-73
2022/11/14 03:31:40;;;;;;;;;;;;;;;24.84;55.10;98003.91;626779;226;41007;-73
2022/11/14 03:34:25;;;;;;;;;;;;;;;24.83;53.80;98006.86;626742;226;40077;-73
2022/11/14 03:37:11;;;;;;;;;;;;;;;24.81;51.80;98010.64;626787;226;37080;-73
2022/11/14 03:39:57;;;;;;;;;;;;;;;24.82;52.98;98011.44;626750;226;36807;-74
2022/11/14 03:42:43;;;;;;;;;;;;;;;24.80;51.73;98013.61;626757;226;40190;-69
2022/11/14 03:45:28;;;;;;;;;;;;;;;24.79;50.34;98009.30;626797;226;41092;-66
2022/11/14 03:48:14;;;;;;;;;;;;;;;24.80;54.67;98010.93;626764;226;41069;-67
2022/11/14 03:51:00;;;;;;;;;;;;;;;24.78;53.02;98010.38;626761;226;37239;-67
2022/11/14 03:53:45;;;;;;;;;;;;;;;24.78;53.72;98010.38;626790;226;41477;-67
2022/11/14 03:56:31;;;;;;;;;;;;;;;24.77;53.52;98006.06;626831;226;36919;-67
2022/11/14 03:59:17;;;;;;;;;;;;;;;24.75;53.08;98005.55;626752;226;40224;-67
2022/11/14 04:02:02;;;;;;;;;;;;;;;24.75;52.99;98010.94;626768;226;41258;-73
2022/11/14 04:04:48;;;;;;;;;;;;;;;24.75;53.74;98010.94;626765;226;36918;-74
2022/11/14 04:07:33;;;;;;;;;;;;;;;24.72;53.00;98009.59;626766;226;41438;-73
2022/11/14 04:10:19;;;;;;;;;;;;;;;24.72;51.70;98006.10;626785;226;39650;-73
2022/11/14 04:13:05;;;;;;;;;;;;;;;24.71;51.93;98004.47;626793;226;41178;-73
2022/11/14 04:15:55;;;;;;;;;;;;;;;24.71;53.77;98004.47;626751;226;41008;-72
2022/11/14 04:18:41;;;;;;;;;;;;;;;24.70;51.28;98016.31;626772;226;37058;-73
2022/11/14 04:21:27;;;;;;;;;;;;;;;24.69;54.10;98006.62;626750;226;36819;-74
2022/11/14 04:24:12;;;;;;;;;;;;;;;24.68;51.63;98011.20;626817;226;41768;-73
2022/11/14 04:26:58;;;;;;;;;;;;;;;24.67;52.60;98012.28;626804;226;41097;-73
2022/11/14 04:29:44;;;;;;;;;;;;;;;24.65;52.55;98009.05;626762;226;40952;-74
2022/11/14 04:32:29;;;;;;;;;;;;;;;24.65;52.82;98011.73;626903;226;41362;-73
2022/11/14 04:35:15;;;;;;;;;;;;;;;24.65;52.43;98016.31;627688;226;37149;-73
2022/11/14 04:38:01;;;;;;;;;;;;;;;24.63;53.12;98005.02;627709;226;36900;-73
2022/11/14 04:40:50;;;;;;;;;;;;;;;24.62;54.12;98011.48;627704;226;37191;-74
2022/11/14 04:43:36;;;;;;;;;;;;;;;24.61;55.39;97999.94;627703;226;40067;-74
2022/11/14 04:46:22;;;;;;;;;;;;;;;24.59;53.74;98013.63;627700;226;36930;-74
2022/11/14 04:49:07;;;;;;;;;;;;;;;24.59;50.96;98012.83;627674;226;37224;-74
2022/11/14 04:51:53;;;;;;;;;;;;;;;24.58;52.67;98011.20;627702;226;36973;-74
2022/11/14 04:54:38;;;;;;;;;;;;;;;24.58;53.72;98013.88;627730;226;36827;-73
2022/11/14 04:57:24;;;;;;;;;;;;;;;24.57;53.92;98012.28;627729;226;41749;-74
2022/11/14 05:00:10;;;;;;;;;;;;;;;24.56;51.02;98016.05;627701;226;37060;-74
2022/11/14 05:02:58;;;;;;;;;;;;;;;24.57;54.80;98010.39;627709;226;39701;-67
2022/11/14 05:05:43;;;;;;;;;;;;;;;24.53;52.85;98012.03;627702;226;37135;-67
2022/11/14 05:08:29;;;;;;;;;;;;;;;24.53;52.87;98016.60;627709;226;39564;-68
2022/11/14 05:11:15;;;;;;;;;;;;;;;24.53;52.71;98013.91;627699;226;40977;-67
2022/11/14 05:14:00;;;;;;;;;;;;;;;24.52;51.99;98017.66;627686;226;37229;-73
2022/11/14 05:16:46;;;;;;;;;;;;;;;24.51;54.22;98014.17;627667;226;37304;-74
2022/11/14 05:19:32;;;;;;;;;;;;;;;24.51;54.23;98016.05;627666;226;39848;-73
2022/11/14 05:22:17;;;;;;;;;;;;;;;24.49;53.17;98013.63;627697;226;37265;-66
2022/11/14 05:25:03;;;;;;;;;;;;;;;24.48;52.54;98017.40;627736;226;37063;-67
2022/11/14 05:27:49;;;;;;;;;;;;;;;24.48;53.70;98012.02;627675;226;37047;-67
2022/11/14 05:30:35;;;;;;;;;;;;;;;24.47;54.96;98010.42;627683;226;37246;-67
2022/11/14 05:33:22;;;;;;;;;;;;;;;24.47;54.00;98014.97;627577;226;36972;-73
2022/11/14 05:36:09;;;;;;;;;;;;;;;24.47;53.73;98017.66;627678;226;36920;-74
2022/11/14 05:38:55;;;;;;;;;;;;;;;24.45;52.88;98009.88;627673;226;36835;-73
2022/11/14 05:41:41;;;;;;;;;;;;;;;24.46;55.30;98008.80;627645;226;41444;-73
2022/11/14 05:44:26;;;;;;;;;;;;;;;24.46;53.05;98014.17;627662;226;41469;-73
2022/11/14 05:47:12;;;;;;;;;;;;;;;24.46;54.52;98008.80;627699;226;38892;-73
2022/11/14 05:49:57;;;;;;;;;;;;;;;24.47;53.31;98007.73;627661;226;39885;-74
2022/11/14 05:52:44;;;;;;;;;;;;;;;24.48;52.92;98013.91;627697;226;39845;-74
2022/11/14 05:55:30;;;;;;;;;;;;;;;24.48;51.45;98008.54;627679;226;37120;-73
2022/11/14 05:58:15;;;;;;;;;;;;;;;24.49;52.00;98010.94;627666;226;36969;-73
2022/11/14 06:01:03;;;;;;;;;;;;;;;24.50;52.46;98009.05;627676;226;36826;-74
2022/11/14 06:03:49;;;;;;;;;;;;;;;24.50;50.52;98007.20;627666;226;37237;-74
2022/11/14 06:06:34;;;;;;;;;;;;;;;24.51;52.67;97997.25;627595;226;40904;-74
2022/11/14 06:09:20;;;;;;;;;;;;;;;24.52;53.85;98005.02;627673;226;36914;-73
2022/11/14 06:12:06;;;;;;;;;;;;;;;24.54;50.76;98007.45;627637;226;37117;-73
2022/11/14 06:14:52;;;;;;;;;;;;;;;24.56;50.35;98008.00;627480;226;36964;-73
2022/11/14 06:17:38;;;;;;;;;;;;;;;24.56;49.06;98014.17;627336;226;36823;-74
2022/11/14 06:20:23;;;;;;;;;;;;;;;24.58;52.09;98012.03;625868;226;41757;-73
2022/11/14 06:23:09;;;;;;;;;;;;;;;24.60;52.87;98006.36;626366;226;37067;-72
2022/11/14 06:25:59;;;;;;;;;;;;;;;24.63;53.62;98008.51;620507;228;36817;-69
2022/11/14 06:28:45;;;;;;;;;;;;;;;24.65;54.49;98000.19;620485;226;40077;-71
2022/11/14 06:31:30;;;;;;;;;;;;;;;24.68;53.12;97999.64;619737;228;36426;-73
2022/11/14 06:34:16;;;;;;;;;;;;;;;24.69;56.46;98003.93;613507;229;40089;-72
2022/11/14 06:37:02;;;;;;;;;;;;;;;24.70;54.04;98000.98;608503;229;41181;-72
2022/11/14 06:39:47;;;;;;;;;;;;;;;24.72;58.83;98001.53;619507;229;41103;-70
2022/11/14 06:42:33;;;;;;;;;;;;;;;24.73;54.87;98002.33;619520;229;36913;-72
2022/11/14 06:45:19;;;;;;;;;;;;;;;24.75;56.15;98000.18;619517;229;37024;-72
2022/11/14 06:48:05;;;;;;;;;;;;;;;24.77;54.75;97992.62;619600;229;38358;-71
2022/11/14 06:50:53;;;;;;;;;;;;;;;24.81;55.58;97988.33;619649;229;36952;-70
2022/11/14 06:53:39;;;;;;;;;;;;;;;24.82;55.01;97987.24;619595;229;36826;-73
2022/11/14 06:56:24;;;;;;;;;;;;;;;24.83;55.06;97986.19;619576;229;37030;-72
2022/11/14 06:59:10;;;;;;;;;;;;;;;24.85;50.91;97986.70;619619;229;36913;-72
2022/11/14 07:01:56;;;;;;;;;;;;;;;24.88;53.76;97983.48;619614;229;39865;-75
2022/11/14 07:04:41;;;;;;;;;;;;;;;24.90;56.39;97973.24;619588;229;37071;-72
2022/11/14 07:07:27;;;;;;;;;;;;;;;24.92;56.84;97973.78;619521;229;36964;-72
2022/11/14 07:10:13;;;;;;;;;;;;;;;24.93;54.19;97964.63;619557;229;41588;-73
2022/11/14 07:12:58;;;;;;;;;;;;;;;24.96;54.74;97965.97;619560;229;37068;-72
2022/11/14 07:15:52;;;;;;;;;;;;;;;24.98;57.42;97969.99;619576;229;41080;-69
2022/11/14 07:18:38;;;;;;;;;;;;;;;24.98;48.02;97961.13;619620;229;41466;-70
2022/11/14 07:21:23;;;;;;;;;;;;;;;25.03;55.58;97958.42;619542;229;41063;-69
2022/11/14 07:24:09;;;;;;;;;;;;;;;25.05;53.37;97955.47;619601;229;41111;-72
2022/11/14 07:26:55;;;;;;;;;;;;;;;25.06;55.90;97957.87;619548;229;37132;-73
2022/11/14 07:29:40;;;;;;;;;;;;;;;25.07;52.47;97953.29;619544;229;37064;-72
2022/11/14 07:32:26;;;;;;;;;;;;;;;25.06;55.98;97949.00;619519;229;36939;-72
2022/11/14 07:35:11;;;;;;;;;;;;;;;25.05;58.42;97960.84;619503;229;40143;-71
2022/11/14 07:38:01;;;;;;;;;;;;;;;25.03;57.58;97953.84;619585;229;37153;-72
2022/11/14 07:40:48;;;;;;;;;;;;;;;25.01;56.18;97960.57;619578;229;41076;-72
2022/11/14 07:43:34;;;;;;;;;;;;;;;25.01;57.74;97949.81;619510;229;37120;-70
2022/11/14 07:46:20;;;;;;;;;;;;;;;25.03;53.74;97951.16;619547;229;37051;-71
2022/11/14 07:49:05;;;;;;;;;;;;;;;25.07;55.20;97950.59;619526;229;36829;-72
2022/11/14 07:51:51;;;;;;;;;;;;;;;25.10;56.28;97963.49;619629;229;37199;-65
2022/11/14 07:54:37;;;;;;;;;;;;;;;25.10;56.55;97952.73;619685;229;38319;-66
2022/11/14 07:57:23;;;;;;;;;;;;;;;25.13;55.32;97957.59;619536;229;36944;-66
2022/11/14 08:00:09;;;;;;;;;;;;;;;25.13;56.67;97954.91;619532;229;37107;-65
2022/11/14 08:02:55;;;;;;;;;;;;;;;25.15;56.83;97955.44;619517;229;41778;-66
2022/11/14 08:05:41;;;;;;;;;;;;;;;25.17;57.78;97953.28;619593;229;36832;-66
2022/11/14 08:08:26;;;;;;;;;;;;;;;25.19;57.03;97959.20;619554;229;41052;-66
2022/11/14 08:11:12;;;;;;;;;;;;;;;25.19;55.03;97954.62;619516;229;37095;-66
2022/11/14 08:13:57;;;;;;;;;;;;;;;25.21;54.85;97957.84;619584;229;36836;-65
2022/11/14 08:16:43;;;;;;;;;;;;;;;25.23;56.13;97958.36;619541;229;41380;-65
2022/11/14 08:19:29;;;;;;;;;;;;;;;25.25;57.41;97955.41;619579;229;36981;-68
2022/11/14 08:22:14;;;;;;;;;;;;;;;25.27;54.92;97955.14;619596;229;41082;-66
2022/11/14 08:25:00;;;;;;;;;;;;;;;25.27;55.88;97955.14;619569;229;41051;-68
2022/11/14 08:27:46;;;;;;;;;;;;;;;25.28;53.45;97952.16;619545;229;41060;-67
2022/11/14 08:30:31;;;;;;;;;;;;;;;25.29;51.02;97953.78;619490;229;41236;-66
2022/11/14 08:33:17;;;;;;;;;;;;;;;25.33;54.41;97952.14;619489;229;40396;-66
2022/11/14 08:36:03;;;;;;;;;;;;;;;25.35;52.43;97949.98;619560;229;37060;-66
2022/11/14 08:38:49;;;;;;;;;;;;;;;25.37;55.42;97950.52;619535;229;36923;-66
2022/11/14 08:41:35;;;;;;;;;;;;;;;25.36;55.38;97954.27;619594;229;41866;-67
2022/11/14 08:44:22;;;;;;;;;;;;;;;25.37;55.23;97953.20;619522;229;36904;-65
2022/11/14 08:47:08;;;;;;;;;;;;;;;25.38;54.36;97946.73;619518;229;36962;-65
2022/11/14 08:49:53;;;;;;;;;;;;;;;25.38;52.82;97951.31;619579;229;37252;-64
2022/11/14 08:52:39;;;;;;;;;;;;;;;25.39;54.00;97945.64;619599;229;37091;-64
2022/11/14 08:55:25;;;;;;;;;;;;;;;25.41;55.21;97942.69;619573;229;38423;-66
2022/11/14 08:58:10;;;;;;;;;;;;;;;25.41;51.92;97943.48;619513;229;37163;-65
2022/11/14 09:00:58;;;;;;;;;;;;;;;25.43;55.08;97941.33;619533;229;37100;-66
2022/11/14 09:03:43;;;;;;;;;;;;;;;25.41;55.47;97938.10;619542;229;36823;-66
2022/11/14 09:06:29;;;;;;;;;;;;;;;25.41;55.39;97929.23;619519;229;37152;-65
2022/11/14 09:09:14;;;;;;;;;;;;;;;25.42;53.22;97928.94;619566;229;41185;-65
2022/11/14 09:12:00;;;;;;;;;;;;;;;25.42;56.28;97923.55;619524;229;39631;-65
2022/11/14 09:14:46;;;;;;;;;;;;;;;25.42;54.38;97922.76;619471;229;37324;-66
2022/11/14 09:17:31;;;;;;;;;;;;;;;25.43;55.71;97921.69;619587;229;38379;-65
2022/11/14 09:20:18;;;;;;;;;;;;;;;25.45;51.81;97908.73;619494;229;36922;-66
2022/11/14 09:23:04;;;;;;;;;;;;;;;25.47;50.07;97912.77;619591;229;39168;-65
2022/11/14 09:25:50;;;;;;;;;;;;;;;25.47;52.65;97910.08;619570;229;40253;-64
2022/11/14 09:28:36;;;;;;;;;;;;;;;25.45;53.84;97904.19;619484;229;41101;-68
2022/11/14 09:31:22;;;;;;;;;;;;;;;25.44;52.57;97894.48;619512;229;37211;-65
2022/11/14 09:34:08;;;;;;;;;;;;;;;25.46;53.46;97896.91;619423;229;37075;-67
2022/11/14 09:36:53;;;;;;;;;;;;;;;25.49;53.40;97896.35;619464;229;36828;-65
2022/11/14 09:39:39;;;;;;;;;;;;;;;25.48;49.51;97886.65;619551;229;37129;-67
2022/11/14 09:42:39;;;;;;;;;;;;;;;25.51;51.30;97880.73;619484;229;39751;-64
2022/11/14 09:45:24;;;;;;;;;;;;;;;25.53;51.83;97880.44;619555;229;39836;-63
2022/11/14 09:48:11;;;;;;;;;;;;;;;25.52;49.28;97873.46;619522;229;36807;-64
2022/11/14 09:51:08;;;;;;;;;;;;;;;25.51;52.54;97875.35;619506;229;37045;-66
2022/11/14 09:53:54;;;;;;;;;;;;;;;25.51;48.44;97869.14;619523;229;39962;-67
2022/11/14 09:56:40;;;;;;;;;;;;;;;25.52;54.33;97865.39;619586;229;36615;-66
2022/11/14 09:59:26;;;;;;;;;;;;;;;25.50;53.62;97862.96;619610;229;37017;-70
2022/11/14 10:02:19;;;;;;;;;;;;;;;25.49;51.20;97864.05;619566;229;36830;-67
2022/11/14 10:05:13;;;;;;;;;;;;;;;25.51;52.20;97850.30;619462;229;41539;-67
2022/11/14 10:08:00;;;;;;;;;;;;;;;25.51;52.74;97844.92;619534;229;37190;-66
2022/11/14 10:10:54;;;;;;;;;;;;;;;25.52;54.41;97846.55;619541;229;36824;-67
2022/11/14 10:13:59;;;;;;;;;;;;;;;25.53;51.16;97842.77;619570;229;41701;-65
2022/11/14 10:16:55;;;;;;;;;;;;;;;25.52;53.38;97835.78;619571;229;37009;-66
2022/11/14 10:19:43;;;;;;;;;;;;;;;25.54;49.52;97833.62;619531;229;40983;-67
2022/11/14 10:22:39;;;;;;;;;;;;;;;25.55;51.56;97832.52;619485;229;41465;-65
2022/11/14 10:25:26;;;;;;;;;;;;;;;25.56;49.27;97826.84;619514;229;41187;-65
2022/11/14 10:28:22;;;;;;;;;;;;;;;25.57;52.61;97819.59;619523;229;36917;-68
2022/11/14 10:31:09;;;;;;;;;;;;;;;25.57;50.22;97820.40;605746;229;41584;-67
2022/11/14 10:34:05;;;;;;;;;;;;;;;25.56;55.10;97821.46;620225;228;41202;-66
2022/11/14 10:37:11;;;;;;;;;;;;;;;25.55;51.90;97816.38;620465;228;36968;-65
2022/11/14 10:39:57;;;;;;;;;;;;;;;25.54;56.87;97817.48;620411;228;37246;-65
2022/11/14 10:42:44;;;;;;;;;;;;;;;25.52;53.00;97808.88;620501;228;36743;-67
2022/11/14 10:45:38;;;;;;;;;;;;;;;25.53;51.70;97810.47;620474;228;41068;-67
2022/11/14 10:48:25;;;;;;;;;;;;;;;25.54;56.12;97801.33;620428;228;40049;-67
2022/11/14 10:51:18;;;;;;;;;;;;;;;25.53;53.36;97794.31;620483;228;41377;-67
2022/11/14 10:54:08;;;;;;;;;;;;;;;25.54;53.98;97793.25;620366;228;38374;-67
2022/11/14 10:56:54;;;;;;;;;;;;;;;25.54;51.79;97793.25;620408;228;40184;-66
2022/11/14 10:59:41;;;;;;;;;;;;;;;25.54;51.55;97788.67;620425;228;37113;-65
2022/11/14 11:02:28;;;;;;;;;;;;;;;25.55;54.10;97792.16;620285;228;36937;-66
2022/11/14 11:05:15;;;;;;;;;;;;;;;25.55;53.91;97782.19;620437;228;37126;-67
2022/11/14 11:14:17;;;;;;;;;;;;;;;25.54;56.64;97785.17;620484;228;39627;-66
2022/11/14 11:17:18;;;;;;;;;;;;;;;25.54;53.48;97777.11;620472;228;36760;-68
2022/11/14 11:20:11;;;;;;;;;;;;;;;25.55;56.05;97776.80;620497;228;36910;-64
2022/11/14 11:23:07;;;;;;;;;;;;;;;25.52;53.30;97773.89;619821;228;37214;-65
2022/11/14 11:26:07;;;;;;;;;;;;;;;25.48;54.63;97768.24;620546;228;36763;-66
2022/11/14 11:29:05;;;;;;;;;;;;;;;25.47;54.51;97761.27;620507;228;39718;-63
2022/11/14 11:31:58;;;;;;;;;;;;;;;25.44;52.30;97759.14;620444;228;36893;-66
2022/11/14 11:34:44;;;;;;;;;;;;;;;25.45;55.81;97756.19;620546;228;36761;-67
2022/11/14 11:37:34;;;;;;;;;;;;;;;25.45;56.20;97750.80;620444;228;41178;-65
2022/11/14 11:40:21;;;;;;;;;;;;;;;25.45;54.70;97755.36;620489;228;37117;-64
2022/11/14 11:43:20;;;;;;;;;;;;;;;25.44;52.42;97756.45;620512;228;38771;-66
2022/11/14 11:46:07;;;;;;;;;;;;;;;25.43;53.97;97750.27;620438;228;36908;-66
2022/11/14 11:48:54;;;;;;;;;;;;;;;25.43;53.97;97744.89;620526;228;37381;-66
2022/11/14 11:51:41;;;;;;;;;;;;;;;25.44;53.68;97743.80;620442;228;40923;-66
2022/11/14 11:54:31;;;;;;;;;;;;;;;25.44;54.21;97743.80;620397;228;37838;-66
2022/11/14 11:57:18;;;;;;;;;;;;;;;25.44;53.43;97732.23;620418;228;40121;-73
2022/11/14 12:00:08;;;;;;;;;;;;;;;25.43;54.90;97727.95;620445;228;37079;-72
2022/11/14 12:02:54;;;;;;;;;;;;;;;25.42;55.38;97723.63;620420;228;38424;-72
2022/11/14 12:05:58;;;;;;;;;;;;;;;25.41;54.76;97722.04;620415;228;37164;-72
2022/11/14 12:08:45;;;;;;;;;;;;;;;25.41;53.64;97727.42;620533;228;39670;-72
2022/11/14 12:11:32;;;;;;;;;;;;;;;25.40;51.11;97721.23;620531;228;37141;-72
2022/11/14 12:14:26;;;;;;;;;;;;;;;25.41;52.42;97728.22;620481;228;40348;-72
2022/11/14 12:17:16;;;;;;;;;;;;;;;25.41;53.67;97720.14;620508;228;37256;-74
2022/11/14 12:20:09;;;;;;;;;;;;;;;25.39;51.88;97719.62;620426;228;36998;-71
2022/11/14 12:23:10;;;;;;;;;;;;;;;25.41;55.21;97719.34;620428;228;37226;-67
2022/11/14 12:25:57;;;;;;;;;;;;;;;25.39;53.25;97719.62;620462;228;36996;-72
2022/11/14 12:28:47;;;;;;;;;;;;;;;25.38;51.87;97718.02;620426;228;36826;-71
2022/11/14 12:31:34;;;;;;;;;;;;;;;25.39;55.03;97716.13;618490;228;37249;-71
2022/11/14 12:34:33;;;;;;;;;;;;;;;25.38;53.59;97712.64;620370;228;37063;-70
2022/11/14 12:37:20;;;;;;;;;;;;;;;25.39;55.80;97721.52;620506;228;37019;-71
2022/11/14 12:40:07;;;;;;;;;;;;;;;25.38;55.20;97715.33;620422;228;39714;-71
2022/11/14 12:42:54;;;;;;;;;;;;;;;25.37;55.00;97716.43;620439;228;41287;-72
2022/11/14 12:45:41;;;;;;;;;;;;;;;25.38;52.96;97715.33;620475;228;36920;-72
2022/11/14 12:48:29;;;;;;;;;;;;;;;25.38;55.16;97717.22;620291;228;36440;-72
2022/11/14 12:51:28;;;;;;;;;;;;;;;25.37;54.08;97718.30;620461;228;39669;-72
2022/11/14 12:54:32;;;;;;;;;;;;;;;25.40;52.25;97723.10;620438;228;36816;-71
2022/11/14 12:57:46;;;;;;;;;;;;;;;25.42;51.94;97718.25;620440;228;37241;-72
2022/11/14 13:00:07;;;;;;;;;;;;;;;25.45;55.37;97718.52;620430;228;41313;-72
2022/11/14 13:02:57;;;;;;;;;;;;;;;25.46;51.79;97719.30;620479;228;37059;-71
2022/11/14 13:05:45;;;;;;;;;;;;;;;25.46;50.89;97712.03;620509;228;40144;-70
2022/11/14 13:08:41;;;;;;;;;;;;;;;25.49;52.98;97715.25;620434;228;37065;-73
2022/11/14 13:24:18;;;;;;;;;;;;;;;25.52;51.75;97714.67;620421;228;37216;-73
2022/11/14 13:27:05;;;;;;;;;;;;;;;25.53;52.15;97718.96;620518;228;37053;-69
2022/11/14 13:29:50;;;;;;;;;;;;;;;25.54;51.45;97715.20;620406;228;41125;-71
2022/11/14 13:32:44;;;;;;;;;;;;;;;25.52;48.74;97714.67;620101;228;37237;-71
2022/11/14 13:35:40;;;;;;;;;;;;;;;25.50;53.56;97714.95;619597;229;36831;-71
2022/11/14 13:38:27;;;;;;;;;;;;;;;25.50;53.73;97708.77;619470;229;36952;-72
2022/11/14 13:41:14;;;;;;;;;;;;;;;25.49;53.83;97712.55;619536;229;41427;-70
2022/11/14 13:44:04;;;;;;;;;;;;;;;25.48;52.38;97711.73;619536;229;40192;-69
2022/11/14 13:47:06;;;;;;;;;;;;;;;25.48;55.28;97714.42;619512;229;36931;-68
2022/11/14 13:49:54;;;;;;;;;;;;;;;25.47;55.79;97710.14;619560;229;37112;-68
2022/11/14 13:52:41;;;;;;;;;;;;;;;25.45;54.14;97709.61;619476;229;37083;-69
2022/11/14 13:55:44;;;;;;;;;;;;;;;25.46;55.32;97706.65;619543;229;36854;-68
2022/11/14 13:58:50;;;;;;;;;;;;;;;25.46;52.55;97714.72;619474;229;41937;-68
2022/11/14 14:01:58;;;;;;;;;;;;;;;25.46;53.29;97709.34;619534;229;39910;-68
2022/11/14 14:04:43;;;;;;;;;;;;;;;25.47;53.90;97705.55;619570;229;41074;-73
2022/11/14 14:07:33;;;;;;;;;;;;;;;25.49;52.08;97712.55;619485;229;41005;-71
2022/11/14 14:10:23;;;;;;;;;;;;;;;25.48;55.73;97709.04;619531;229;37100;-70
2022/11/14 14:13:10;;;;;;;;;;;;;;;25.49;55.57;97717.94;619538;229;36949;-72
2022/11/14 14:15:57;;;;;;;;;;;;;;;25.49;53.11;97713.36;620032;227;42827;-71
2022/11/14 14:18:47;;;;;;;;;;;;;;;25.50;51.77;97719.53;624212;227;41060;-69
2022/11/14 14:21:34;;;;;;;;;;;;;;;25.51;56.58;97715.75;624187;227;36925;-71
2022/11/14 14:24:21;;;;;;;;;;;;;;;25.50;54.49;97714.16;624162;227;41537;-72
2022/11/14 14:27:17;;;;;;;;;;;;;;;25.51;53.02;97719.27;624209;227;41380;-72
2022/11/14 14:30:11;;;;;;;;;;;;;;;25.51;54.37;97719.27;624157;227;37033;-72
2022/11/14 14:33:04;;;;;;;;;;;;;;;25.50;54.13;97714.95;621834;227;37155;-69
2022/11/14 14:35:50;;;;;;;;;;;;;;;25.51;53.03;97719.27;618565;229;41172;-68
2022/11/14 14:38:36;;;;;;;;;;;;;;;25.52;57.38;97722.75;618985;229;40918;-71
2022/11/14 14:41:22;;;;;;;;;;;;;;;25.51;53.69;97721.95;618849;229;40222;-71
2022/11/14 14:44:21;;;;;;;;;;;;;;;25.54;53.90;97725.97;618946;229;37095;-71
2022/11/14 14:47:17;;;;;;;;;;;;;;;25.53;55.83;97732.42;618864;229;41244;-67
2022/11/14 14:50:05;;;;;;;;;;;;;;;25.52;55.61;97733.52;618883;229;37110;-71
2022/11/14 14:52:55;;;;;;;;;;;;;;;25.52;56.76;97736.20;618976;229;41415;-72
2022/11/14 14:55:41;;;;;;;;;;;;;;;25.54;55.48;97740.22;618936;229;39597;-70
2022/11/14 14:58:31;;;;;;;;;;;;;;;25.53;55.83;97737.80;618958;229;37210;-70
2022/11/14 15:01:18;;;;;;;;;;;;;;;25.53;55.29;97740.49;619001;229;36848;-70
2022/11/14 15:04:05;;;;;;;;;;;;;;;25.53;55.18;97743.19;618908;229;36878;-71
2022/11/14 15:06:51;;;;;;;;;;;;;;;25.55;55.01;97741.02;618986;229;37142;-70
2022/11/14 15:09:37;;;;;;;;;;;;;;;25.55;56.16;97749.09;618939;229;41475;-69
2022/11/14 15:12:24;;;;;;;;;;;;;;;25.55;54.82;97749.09;618892;229;36927;-71